sensor_id;sensor_type;location;lat;lon;timestamp;temperature;humidity
1137;DHT22;557;48.466;7.950;2024-02-15T00:02:21;10.00;99.90
1137;DHT22;557;48.466;7.950;2024-02-15T00:04:48;9.90;99.90
1137;DHT22;557;48.466;7.950;2024-02-15T00:07:18;10.00;99.90
1137;DHT22;557;48.466;7.950;2024-02-15T00:09:47;9.90;99.90
1137;DHT22;557;48.466;7.950;2024-02-15T00:12:14;9.80;99.90
1137;DHT22;557;48.466;7.950;2024-02-15T00:14:41;9.90;99.90
1137;DHT22;557;48.466;7.950;2024-02-15T00:17:09;9.80;99.90
1137;DHT22;557;48.466;7.950;2024-02-15T00:19:37;9.80;99.90
1137;DHT22;557;48.466;7.950;2024-02-15T00:22:05;9.70;99.90
1137;DHT22;557;48.466;7.950;2024-02-15T00:24:36;9.70;99.90
1137;DHT22;557;48.466;7.950;2024-02-15T00:27:04;9.70;99.90
1137;DHT22;557;48.466;7.950;2024-02-15T00:29:31;9.70;99.90
1137;DHT22;557;48.466;7.950;2024-02-15T00:32:01;9.60;99.90
1137;DHT22;557;48.466;7.950;2024-02-15T00:34:31;9.50;99.90
1137;DHT22;557;48.466;7.950;2024-02-15T00:36:59;9.50;99.90
1137;DHT22;557;48.466;7.950;2024-02-15T00:39:25;9.40;99.90
1137;DHT22;557;48.466;7.950;2024-02-15T00:41:54;9.40;99.90
1137;DHT22;557;48.466;7.950;2024-02-15T00:44:21;9.30;99.90
1137;DHT22;557;48.466;7.950;2024-02-15T00:46:47;9.30;99.90
1137;DHT22;557;48.466;7.950;2024-02-15T00:49:15;9.30;99.90
1137;DHT22;557;48.466;7.950;2024-02-15T00:51:45;9.30;99.90
1137;DHT22;557;48.466;7.950;2024-02-15T00:54:13;9.30;99.90
1137;DHT22;557;48.466;7.950;2024-02-15T00:56:39;9.20;99.90
1137;DHT22;557;48.466;7.950;2024-02-15T00:59:08;9.20;99.90
1137;DHT22;557;48.466;7.950;2024-02-15T01:01:35;9.10;99.90
1137;DHT22;557;48.466;7.950;2024-02-15T01:04:03;9.10;99.90
1137;DHT22;557;48.466;7.950;2024-02-15T01:06:31;9.10;99.90
1137;DHT22;557;48.466;7.950;2024-02-15T01:08:59;9.00;99.90
1137;DHT22;557;48.466;7.950;2024-02-15T01:11:27;9.00;99.90
1137;DHT22;557;48.466;7.950;2024-02-15T01:13:55;9.00;99.90
1137;DHT22;557;48.466;7.950;2024-02-15T01:16:24;9.00;99.90
1137;DHT22;557;48.466;7.950;2024-02-15T01:18:50;8.90;99.90
1137;DHT22;557;48.466;7.950;2024-02-15T01:21:17;8.90;99.90
1137;DHT22;557;48.466;7.950;2024-02-15T01:23:45;8.90;99.90
1137;DHT22;557;48.466;7.950;2024-02-15T01:26:12;8.90;99.90
1137;DHT22;557;48.466;7.950;2024-02-15T01:28:40;8.90;99.90
1137;DHT22;557;48.466;7.950;2024-02-15T01:31:08;8.90;99.90
1137;DHT22;557;48.466;7.950;2024-02-15T01:33:38;8.80;99.90
1137;DHT22;557;48.466;7.950;2024-02-15T01:36:05;8.70;99.90
1137;DHT22;557;48.466;7.950;2024-02-15T01:38:34;8.60;99.90
1137;DHT22;557;48.466;7.950;2024-02-15T01:41:01;8.60;99.90
1137;DHT22;557;48.466;7.950;2024-02-15T01:43:29;8.50;99.90
1137;DHT22;557;48.466;7.950;2024-02-15T01:45:56;8.50;99.90
1137;DHT22;557;48.466;7.950;2024-02-15T01:48:27;8.40;99.90
1137;DHT22;557;48.466;7.950;2024-02-15T01:50:56;8.40;99.90
1137;DHT22;557;48.466;7.950;2024-02-15T01:53:24;8.30;99.90
1137;DHT22;557;48.466;7.950;2024-02-15T01:55:53;8.30;99.90
1137;DHT22;557;48.466;7.950;2024-02-15T01:58:23;8.30;99.90
1137;DHT22;557;48.466;7.950;2024-02-15T02:00:50;8.20;99.90
1137;DHT22;557;48.466;7.950;2024-02-15T02:03:18;8.30;99.90
1137;DHT22;557;48.466;7.950;2024-02-15T02:05:47;8.30;99.90
1137;DHT22;557;48.466;7.950;2024-02-15T02:08:15;8.30;99.90
1137;DHT22;557;48.466;7.950;2024-02-15T02:10:42;8.40;99.90
1137;DHT22;557;48.466;7.950;2024-02-15T02:13:11;8.40;99.90
1137;DHT22;557;48.466;7.950;2024-02-15T02:15:38;8.50;99.90
1137;DHT22;557;48.466;7.950;2024-02-15T02:18:05;8.50;99.90
1137;DHT22;557;48.466;7.950;2024-02-15T02:20:34;8.50;99.90
1137;DHT22;557;48.466;7.950;2024-02-15T02:23:04;8.60;99.90
1137;DHT22;557;48.466;7.950;2024-02-15T02:25:35;8.60;99.90
1137;DHT22;557;48.466;7.950;2024-02-15T02:28:02;8.60;99.90
1137;DHT22;557;48.466;7.950;2024-02-15T02:30:28;8.50;99.90
1137;DHT22;557;48.466;7.950;2024-02-15T02:32:55;8.40;99.90
1137;DHT22;557;48.466;7.950;2024-02-15T02:35:24;8.30;99.90
1137;DHT22;557;48.466;7.950;2024-02-15T02:37:51;8.20;99.90
1137;DHT22;557;48.466;7.950;2024-02-15T02:40:19;8.20;99.90
1137;DHT22;557;48.466;7.950;2024-02-15T02:42:51;8.20;99.90
1137;DHT22;557;48.466;7.950;2024-02-15T02:45:18;8.10;99.90
1137;DHT22;557;48.466;7.950;2024-02-15T02:47:48;8.10;99.90
1137;DHT22;557;48.466;7.950;2024-02-15T02:50:15;8.00;99.90
1137;DHT22;557;48.466;7.950;2024-02-15T02:52:42;8.00;99.90
1137;DHT22;557;48.466;7.950;2024-02-15T02:55:09;8.00;99.90
1137;DHT22;557;48.466;7.950;2024-02-15T02:57:37;8.00;99.90
1137;DHT22;557;48.466;7.950;2024-02-15T03:00:07;8.00;99.90
1137;DHT22;557;48.466;7.950;2024-02-15T03:02:36;8.00;99.90
1137;DHT22;557;48.466;7.950;2024-02-15T03:05:04;8.00;99.90
1137;DHT22;557;48.466;7.950;2024-02-15T03:07:32;8.00;99.90
1137;DHT22;557;48.466;7.950;2024-02-15T03:10:00;7.90;99.90
1137;DHT22;557;48.466;7.950;2024-02-15T03:12:27;7.90;99.90
1137;DHT22;557;48.466;7.950;2024-02-15T03:14:55;7.90;99.90
1137;DHT22;557;48.466;7.950;2024-02-15T03:17:24;7.90;99.90
1137;DHT22;557;48.466;7.950;2024-02-15T03:19:51;7.90;99.90
1137;DHT22;557;48.466;7.950;2024-02-15T03:22:18;7.90;99.90
1137;DHT22;557;48.466;7.950;2024-02-15T03:24:45;7.80;99.90
1137;DHT22;557;48.466;7.950;2024-02-15T03:27:12;7.80;99.90
1137;DHT22;557;48.466;7.950;2024-02-15T03:29:39;7.80;99.90
1137;DHT22;557;48.466;7.950;2024-02-15T03:32:06;7.80;99.90
1137;DHT22;557;48.466;7.950;2024-02-15T03:34:36;7.80;99.90
1137;DHT22;557;48.466;7.950;2024-02-15T03:37:05;7.80;99.90
1137;DHT22;557;48.466;7.950;2024-02-15T03:39:32;7.80;99.90
1137;DHT22;557;48.466;7.950;2024-02-15T03:41:59;7.80;99.90
1137;DHT22;557;48.466;7.950;2024-02-15T03:44:26;7.80;99.90
1137;DHT22;557;48.466;7.950;2024-02-15T03:46:53;7.70;99.90
1137;DHT22;557;48.466;7.950;2024-02-15T03:49:20;7.70;99.90
1137;DHT22;557;48.466;7.950;2024-02-15T03:51:49;7.70;99.90
1137;DHT22;557;48.466;7.950;2024-02-15T03:54:16;7.70;99.90
1137;DHT22;557;48.466;7.950;2024-02-15T03:56:49;7.70;99.90
1137;DHT22;557;48.466;7.950;2024-02-15T03:59:18;7.70;99.90
1137;DHT22;557;48.466;7.950;2024-02-15T04:01:52;7.70;99.90
1137;DHT22;557;48.466;7.950;2024-02-15T04:04:19;7.70;99.90
1137;DHT22;557;48.466;7.950;2024-02-15T04:06:48;7.70;99.90
1137;DHT22;557;48.466;7.950;2024-02-15T04:09:15;7.70;99.90
1137;DHT22;557;48.466;7.950;2024-02-15T04:11:43;7.70;99.90
1137;DHT22;557;48.466;7.950;2024-02-15T04:14:12;7.70;99.90
1137;DHT22;557;48.466;7.950;2024-02-15T04:16:39;7.60;99.90
1137;DHT22;557;48.466;7.950;2024-02-15T04:19:06;7.60;99.90
1137;DHT22;557;48.466;7.950;2024-02-15T04:21:33;7.50;99.90
1137;DHT22;557;48.466;7.950;2024-02-15T04:24:01;7.40;99.90
1137;DHT22;557;48.466;7.950;2024-02-15T04:26:28;7.40;99.90
1137;DHT22;557;48.466;7.950;2024-02-15T04:28:56;7.30;99.90
1137;DHT22;557;48.466;7.950;2024-02-15T04:31:24;7.30;99.90
1137;DHT22;557;48.466;7.950;2024-02-15T04:33:52;7.40;99.90
1137;DHT22;557;48.466;7.950;2024-02-15T04:36:19;7.60;99.90
1137;DHT22;557;48.466;7.950;2024-02-15T04:38:49;7.50;99.90
1137;DHT22;557;48.466;7.950;2024-02-15T04:41:18;7.50;99.90
1137;DHT22;557;48.466;7.950;2024-02-15T04:43:48;7.50;99.90
1137;DHT22;557;48.466;7.950;2024-02-15T04:46:15;7.50;99.90
1137;DHT22;557;48.466;7.950;2024-02-15T04:48:42;7.50;99.90
1137;DHT22;557;48.466;7.950;2024-02-15T04:51:09;7.50;99.90
1137;DHT22;557;48.466;7.950;2024-02-15T04:53:37;7.50;99.90
1137;DHT22;557;48.466;7.950;2024-02-15T04:56:05;7.50;99.90
1137;DHT22;557;48.466;7.950;2024-02-15T04:58:38;7.60;99.90
1137;DHT22;557;48.466;7.950;2024-02-15T05:01:12;7.60;99.90
1137;DHT22;557;48.466;7.950;2024-02-15T05:03:39;7.70;99.90
1137;DHT22;557;48.466;7.950;2024-02-15T05:06:07;7.70;99.90
1137;DHT22;557;48.466;7.950;2024-02-15T05:08:35;7.60;99.90
1137;DHT22;557;48.466;7.950;2024-02-15T05:11:04;7.70;99.90
1137;DHT22;557;48.466;7.950;2024-02-15T05:13:32;7.70;99.90
1137;DHT22;557;48.466;7.950;2024-02-15T05:16:00;7.70;99.90
1137;DHT22;557;48.466;7.950;2024-02-15T05:18:27;7.70;99.90
1137;DHT22;557;48.466;7.950;2024-02-15T05:20:56;7.60;99.90
1137;DHT22;557;48.466;7.950;2024-02-15T05:23:23;7.60;99.90
1137;DHT22;557;48.466;7.950;2024-02-15T05:25:50;7.50;99.90
1137;DHT22;557;48.466;7.950;2024-02-15T05:28:16;7.50;99.90
1137;DHT22;557;48.466;7.950;2024-02-15T05:30:44;7.40;99.90
1137;DHT22;557;48.466;7.950;2024-02-15T05:33:12;7.30;99.90
1137;DHT22;557;48.466;7.950;2024-02-15T05:35:39;7.30;99.90
1137;DHT22;557;48.466;7.950;2024-02-15T05:38:07;7.20;99.90
1137;DHT22;557;48.466;7.950;2024-02-15T05:40:35;7.30;99.90
1137;DHT22;557;48.466;7.950;2024-02-15T05:43:02;7.40;99.90
1137;DHT22;557;48.466;7.950;2024-02-15T05:45:31;7.40;99.90
1137;DHT22;557;48.466;7.950;2024-02-15T05:47:59;7.50;99.90
1137;DHT22;557;48.466;7.950;2024-02-15T05:50:28;7.60;99.90
1137;DHT22;557;48.466;7.950;2024-02-15T05:52:56;7.70;99.90
1137;DHT22;557;48.466;7.950;2024-02-15T05:55:24;7.70;99.90
1137;DHT22;557;48.466;7.950;2024-02-15T05:57:52;7.80;99.90
1137;DHT22;557;48.466;7.950;2024-02-15T06:00:20;7.80;99.90
1137;DHT22;557;48.466;7.950;2024-02-15T06:02:47;7.70;99.90
1137;DHT22;557;48.466;7.950;2024-02-15T06:05:15;7.80;99.90
1137;DHT22;557;48.466;7.950;2024-02-15T06:07:45;7.80;99.90
1137;DHT22;557;48.466;7.950;2024-02-15T06:10:12;7.80;99.90
1137;DHT22;557;48.466;7.950;2024-02-15T06:12:40;7.90;99.90
1137;DHT22;557;48.466;7.950;2024-02-15T06:15:08;7.90;99.90
1137;DHT22;557;48.466;7.950;2024-02-15T06:17:41;8.00;99.90
1137;DHT22;557;48.466;7.950;2024-02-15T06:20:11;8.10;99.90
1137;DHT22;557;48.466;7.950;2024-02-15T06:22:40;8.10;99.90
1137;DHT22;557;48.466;7.950;2024-02-15T06:25:08;8.20;99.90
1137;DHT22;557;48.466;7.950;2024-02-15T06:27:36;8.20;99.90
1137;DHT22;557;48.466;7.950;2024-02-15T06:30:07;8.30;99.90
1137;DHT22;557;48.466;7.950;2024-02-15T06:32:52;8.30;99.90
1137;DHT22;557;48.466;7.950;2024-02-15T06:35:37;8.30;99.90
1137;DHT22;557;48.466;7.950;2024-02-15T06:38:22;8.20;99.90
1137;DHT22;557;48.466;7.950;2024-02-15T06:41:08;8.20;99.90
1137;DHT22;557;48.466;7.950;2024-02-15T06:43:35;8.20;99.90
1137;DHT22;557;48.466;7.950;2024-02-15T06:46:06;8.30;99.90
1137;DHT22;557;48.466;7.950;2024-02-15T06:48:33;8.30;99.90
1137;DHT22;557;48.466;7.950;2024-02-15T06:51:00;8.30;99.90
1137;DHT22;557;48.466;7.950;2024-02-15T06:53:26;8.40;99.90
1137;DHT22;557;48.466;7.950;2024-02-15T06:55:53;8.40;99.90
1137;DHT22;557;48.466;7.950;2024-02-15T06:58:21;8.40;99.90
1137;DHT22;557;48.466;7.950;2024-02-15T07:00:49;8.40;99.90
1137;DHT22;557;48.466;7.950;2024-02-15T07:03:16;8.40;99.90
1137;DHT22;557;48.466;7.950;2024-02-15T07:05:43;8.40;99.90
1137;DHT22;557;48.466;7.950;2024-02-15T07:08:10;8.30;99.90
1137;DHT22;557;48.466;7.950;2024-02-15T07:10:38;8.30;99.90
1137;DHT22;557;48.466;7.950;2024-02-15T07:13:05;8.30;99.90
1137;DHT22;557;48.466;7.950;2024-02-15T07:15:33;8.30;99.90
1137;DHT22;557;48.466;7.950;2024-02-15T07:18:04;8.30;99.90
1137;DHT22;557;48.466;7.950;2024-02-15T07:20:32;8.30;99.90
1137;DHT22;557;48.466;7.950;2024-02-15T07:22:59;8.30;99.90
1137;DHT22;557;48.466;7.950;2024-02-15T07:25:25;8.40;99.90
1137;DHT22;557;48.466;7.950;2024-02-15T07:27:52;8.40;99.90
1137;DHT22;557;48.466;7.950;2024-02-15T07:30:19;8.50;99.90
1137;DHT22;557;48.466;7.950;2024-02-15T07:32:48;8.50;99.90
1137;DHT22;557;48.466;7.950;2024-02-15T07:35:15;8.60;99.90
1137;DHT22;557;48.466;7.950;2024-02-15T07:37:51;8.70;99.90
1137;DHT22;557;48.466;7.950;2024-02-15T07:40:18;8.80;99.90
1137;DHT22;557;48.466;7.950;2024-02-15T07:42:47;8.80;99.90
1137;DHT22;557;48.466;7.950;2024-02-15T07:45:15;8.80;99.90
1137;DHT22;557;48.466;7.950;2024-02-15T07:47:43;9.00;99.90
1137;DHT22;557;48.466;7.950;2024-02-15T07:50:15;8.90;99.90
1137;DHT22;557;48.466;7.950;2024-02-15T07:52:44;8.90;99.90
1137;DHT22;557;48.466;7.950;2024-02-15T07:55:11;9.00;99.90
1137;DHT22;557;48.466;7.950;2024-02-15T07:57:38;9.00;99.90
1137;DHT22;557;48.466;7.950;2024-02-15T08:00:06;9.00;99.90
1137;DHT22;557;48.466;7.950;2024-02-15T08:02:36;8.90;99.90
1137;DHT22;557;48.466;7.950;2024-02-15T08:05:06;9.00;99.90
1137;DHT22;557;48.466;7.950;2024-02-15T08:07:38;9.10;99.90
1137;DHT22;557;48.466;7.950;2024-02-15T08:10:08;9.20;99.90
1137;DHT22;557;48.466;7.950;2024-02-15T08:12:39;9.20;99.90
1137;DHT22;557;48.466;7.950;2024-02-15T08:15:07;9.30;99.90
1137;DHT22;557;48.466;7.950;2024-02-15T08:17:38;9.30;99.90
1137;DHT22;557;48.466;7.950;2024-02-15T08:20:07;9.40;99.90
1137;DHT22;557;48.466;7.950;2024-02-15T08:22:34;9.30;99.90
1137;DHT22;557;48.466;7.950;2024-02-15T08:25:06;9.30;99.90
1137;DHT22;557;48.466;7.950;2024-02-15T08:27:37;9.30;99.90
1137;DHT22;557;48.466;7.950;2024-02-15T08:30:08;9.40;99.90
1137;DHT22;557;48.466;7.950;2024-02-15T08:32:36;9.40;99.90
1137;DHT22;557;48.466;7.950;2024-02-15T08:35:05;9.50;99.90
1137;DHT22;557;48.466;7.950;2024-02-15T08:37:34;9.60;99.90
1137;DHT22;557;48.466;7.950;2024-02-15T08:40:02;9.80;99.90
1137;DHT22;557;48.466;7.950;2024-02-15T08:42:32;9.90;99.90
1137;DHT22;557;48.466;7.950;2024-02-15T08:44:59;10.00;99.90
1137;DHT22;557;48.466;7.950;2024-02-15T08:47:27;10.10;99.90
1137;DHT22;557;48.466;7.950;2024-02-15T08:49:54;10.30;99.90
1137;DHT22;557;48.466;7.950;2024-02-15T08:52:21;10.30;99.90
1137;DHT22;557;48.466;7.950;2024-02-15T08:54:48;10.40;99.90
1137;DHT22;557;48.466;7.950;2024-02-15T08:57:15;10.40;99.90
1137;DHT22;557;48.466;7.950;2024-02-15T08:59:45;10.50;99.90
1137;DHT22;557;48.466;7.950;2024-02-15T09:02:14;10.50;99.90
1137;DHT22;557;48.466;7.950;2024-02-15T09:04:44;10.60;99.90
1137;DHT22;557;48.466;7.950;2024-02-15T09:07:11;10.60;99.90
1137;DHT22;557;48.466;7.950;2024-02-15T09:09:38;10.60;99.90
1137;DHT22;557;48.466;7.950;2024-02-15T09:12:05;10.70;99.90
1137;DHT22;557;48.466;7.950;2024-02-15T09:14:32;10.80;99.90
1137;DHT22;557;48.466;7.950;2024-02-15T09:17:00;10.90;99.90
1137;DHT22;557;48.466;7.950;2024-02-15T09:19:33;11.00;99.90
1137;DHT22;557;48.466;7.950;2024-02-15T09:22:01;11.10;99.90
1137;DHT22;557;48.466;7.950;2024-02-15T09:24:30;11.20;99.90
1137;DHT22;557;48.466;7.950;2024-02-15T09:26:58;11.30;99.90
1137;DHT22;557;48.466;7.950;2024-02-15T09:29:27;11.50;99.90
1137;DHT22;557;48.466;7.950;2024-02-15T09:31:55;11.60;99.90
1137;DHT22;557;48.466;7.950;2024-02-15T09:34:25;11.60;99.90
1137;DHT22;557;48.466;7.950;2024-02-15T09:36:52;11.50;99.90
1137;DHT22;557;48.466;7.950;2024-02-15T09:39:19;11.60;99.90
1137;DHT22;557;48.466;7.950;2024-02-15T09:41:46;11.60;99.90
1137;DHT22;557;48.466;7.950;2024-02-15T09:44:19;11.70;99.90
1137;DHT22;557;48.466;7.950;2024-02-15T09:46:54;11.80;99.90
1137;DHT22;557;48.466;7.950;2024-02-15T09:49:28;12.00;99.90
1137;DHT22;557;48.466;7.950;2024-02-15T09:51:56;12.00;99.90
1137;DHT22;557;48.466;7.950;2024-02-15T09:54:33;12.00;99.90
1137;DHT22;557;48.466;7.950;2024-02-15T09:57:01;12.20;99.90
1137;DHT22;557;48.466;7.950;2024-02-15T09:59:30;12.20;99.90
1137;DHT22;557;48.466;7.950;2024-02-15T10:01:59;12.30;99.90
1137;DHT22;557;48.466;7.950;2024-02-15T10:04:29;12.50;99.90
1137;DHT22;557;48.466;7.950;2024-02-15T10:06:55;12.60;99.90
1137;DHT22;557;48.466;7.950;2024-02-15T10:09:24;12.70;99.90
1137;DHT22;557;48.466;7.950;2024-02-15T10:11:55;12.80;99.90
1137;DHT22;557;48.466;7.950;2024-02-15T10:14:24;13.00;99.90
1137;DHT22;557;48.466;7.950;2024-02-15T10:16:52;13.10;99.90
1137;DHT22;557;48.466;7.950;2024-02-15T10:19:20;13.20;99.90
1137;DHT22;557;48.466;7.950;2024-02-15T10:21:52;13.20;99.90
1137;DHT22;557;48.466;7.950;2024-02-15T10:24:22;13.40;99.90
1137;DHT22;557;48.466;7.950;2024-02-15T10:26:50;13.50;99.90
1137;DHT22;557;48.466;7.950;2024-02-15T10:29:20;13.60;99.90
1137;DHT22;557;48.466;7.950;2024-02-15T10:31:59;13.60;99.90
1137;DHT22;557;48.466;7.950;2024-02-15T10:34:28;13.80;99.90
1137;DHT22;557;48.466;7.950;2024-02-15T10:37:10;13.90;99.90
1137;DHT22;557;48.466;7.950;2024-02-15T10:39:38;14.00;99.90
1137;DHT22;557;48.466;7.950;2024-02-15T10:42:06;14.10;99.90
1137;DHT22;557;48.466;7.950;2024-02-15T10:44:36;14.30;99.90
1137;DHT22;557;48.466;7.950;2024-02-15T10:47:04;14.40;99.90
1137;DHT22;557;48.466;7.950;2024-02-15T10:49:34;14.60;99.90
1137;DHT22;557;48.466;7.950;2024-02-15T10:52:05;14.60;99.90
1137;DHT22;557;48.466;7.950;2024-02-15T10:54:47;14.70;99.90
1137;DHT22;557;48.466;7.950;2024-02-15T10:57:20;14.80;99.90
1137;DHT22;557;48.466;7.950;2024-02-15T10:59:54;14.80;99.90
1137;DHT22;557;48.466;7.950;2024-02-15T11:02:26;14.80;99.90
1137;DHT22;557;48.466;7.950;2024-02-15T11:04:58;14.90;99.90
1137;DHT22;557;48.466;7.950;2024-02-15T11:07:31;15.00;99.90
1137;DHT22;557;48.466;7.950;2024-02-15T11:09:59;15.30;99.90
1137;DHT22;557;48.466;7.950;2024-02-15T11:12:28;15.40;99.90
1137;DHT22;557;48.466;7.950;2024-02-15T11:15:02;15.50;99.90
1137;DHT22;557;48.466;7.950;2024-02-15T11:17:46;15.70;99.90
1137;DHT22;557;48.466;7.950;2024-02-15T11:20:49;15.60;99.90
1137;DHT22;557;48.466;7.950;2024-02-15T11:23:27;15.80;99.90
1137;DHT22;557;48.466;7.950;2024-02-15T11:25:54;15.80;99.90
1137;DHT22;557;48.466;7.950;2024-02-15T11:28:39;15.80;99.90
1137;DHT22;557;48.466;7.950;2024-02-15T11:31:10;15.60;99.90
1137;DHT22;557;48.466;7.950;2024-02-15T11:33:38;15.50;99.90
1137;DHT22;557;48.466;7.950;2024-02-15T11:36:07;15.50;99.90
1137;DHT22;557;48.466;7.950;2024-02-15T11:38:40;15.60;99.90
1137;DHT22;557;48.466;7.950;2024-02-15T11:41:09;15.60;99.90
1137;DHT22;557;48.466;7.950;2024-02-15T11:43:50;15.40;99.90
1137;DHT22;557;48.466;7.950;2024-02-15T11:46:27;15.50;99.90
1137;DHT22;557;48.466;7.950;2024-02-15T11:49:01;15.80;99.90
1137;DHT22;557;48.466;7.950;2024-02-15T11:51:30;16.10;99.90
1137;DHT22;557;48.466;7.950;2024-02-15T11:54:05;16.20;99.90
1137;DHT22;557;48.466;7.950;2024-02-15T11:56:52;16.10;99.90
1137;DHT22;557;48.466;7.950;2024-02-15T11:59:41;16.10;99.90
1137;DHT22;557;48.466;7.950;2024-02-15T12:02:20;16.20;99.90
1137;DHT22;557;48.466;7.950;2024-02-15T12:05:06;16.60;99.90
1137;DHT22;557;48.466;7.950;2024-02-15T12:07:51;16.60;99.90
1137;DHT22;557;48.466;7.950;2024-02-15T12:10:39;16.60;99.90
1137;DHT22;557;48.466;7.950;2024-02-15T12:13:24;16.70;99.90
1137;DHT22;557;48.466;7.950;2024-02-15T12:16:09;16.70;99.90
1137;DHT22;557;48.466;7.950;2024-02-15T12:18:54;16.70;99.90
1137;DHT22;557;48.466;7.950;2024-02-15T12:21:24;16.90;99.90
1137;DHT22;557;48.466;7.950;2024-02-15T12:23:52;17.10;99.90
1137;DHT22;557;48.466;7.950;2024-02-15T12:26:22;17.20;99.90
1137;DHT22;557;48.466;7.950;2024-02-15T12:28:52;17.50;99.90
1137;DHT22;557;48.466;7.950;2024-02-15T12:31:22;17.60;99.90
1137;DHT22;557;48.466;7.950;2024-02-15T12:34:02;17.60;99.90
1137;DHT22;557;48.466;7.950;2024-02-15T12:36:32;17.70;99.90
1137;DHT22;557;48.466;7.950;2024-02-15T12:39:01;17.70;99.90
1137;DHT22;557;48.466;7.950;2024-02-15T12:41:30;17.70;99.90
1137;DHT22;557;48.466;7.950;2024-02-15T12:43:58;17.90;99.90
1137;DHT22;557;48.466;7.950;2024-02-15T12:46:26;17.90;99.90
1137;DHT22;557;48.466;7.950;2024-02-15T12:49:10;17.80;99.90
1137;DHT22;557;48.466;7.950;2024-02-15T12:51:39;17.70;99.90
1137;DHT22;557;48.466;7.950;2024-02-15T12:54:08;17.70;99.90
1137;DHT22;557;48.466;7.950;2024-02-15T12:56:37;17.80;99.90
1137;DHT22;557;48.466;7.950;2024-02-15T12:59:05;17.90;99.90
1137;DHT22;557;48.466;7.950;2024-02-15T13:01:34;17.90;99.90
1137;DHT22;557;48.466;7.950;2024-02-15T13:04:02;17.70;99.90
1137;DHT22;557;48.466;7.950;2024-02-15T13:06:28;17.80;99.90
1137;DHT22;557;48.466;7.950;2024-02-15T13:08:55;17.90;99.90
1137;DHT22;557;48.466;7.950;2024-02-15T13:11:22;18.00;99.90
1137;DHT22;557;48.466;7.950;2024-02-15T13:13:52;18.20;99.90
1137;DHT22;557;48.466;7.950;2024-02-15T13:16:20;18.20;99.90
1137;DHT22;557;48.466;7.950;2024-02-15T13:18:49;18.20;99.90
1137;DHT22;557;48.466;7.950;2024-02-15T13:21:19;18.30;99.90
1137;DHT22;557;48.466;7.950;2024-02-15T13:23:49;18.20;99.90
1137;DHT22;557;48.466;7.950;2024-02-15T13:26:16;18.20;99.90
1137;DHT22;557;48.466;7.950;2024-02-15T13:28:46;18.20;99.90
1137;DHT22;557;48.466;7.950;2024-02-15T13:31:17;18.20;99.90
1137;DHT22;557;48.466;7.950;2024-02-15T13:33:48;18.10;99.90
1137;DHT22;557;48.466;7.950;2024-02-15T13:36:15;18.00;99.90
1137;DHT22;557;48.466;7.950;2024-02-15T13:38:43;17.90;99.90
1137;DHT22;557;48.466;7.950;2024-02-15T13:41:10;17.70;99.90
1137;DHT22;557;48.466;7.950;2024-02-15T13:43:37;17.80;99.90
1137;DHT22;557;48.466;7.950;2024-02-15T13:46:06;17.90;99.90
1137;DHT22;557;48.466;7.950;2024-02-15T13:48:35;17.90;99.90
1137;DHT22;557;48.466;7.950;2024-02-15T13:51:03;17.90;99.90
1137;DHT22;557;48.466;7.950;2024-02-15T13:53:36;18.00;99.90
1137;DHT22;557;48.466;7.950;2024-02-15T13:56:04;18.00;99.90
1137;DHT22;557;48.466;7.950;2024-02-15T13:58:36;17.90;99.90
1137;DHT22;557;48.466;7.950;2024-02-15T14:01:03;17.90;99.90
1137;DHT22;557;48.466;7.950;2024-02-15T14:03:32;17.90;99.90
1137;DHT22;557;48.466;7.950;2024-02-15T14:06:03;17.80;99.90
1137;DHT22;557;48.466;7.950;2024-02-15T14:08:30;17.70;99.90
1137;DHT22;557;48.466;7.950;2024-02-15T14:10:58;17.60;99.90
1137;DHT22;557;48.466;7.950;2024-02-15T14:13:26;17.70;99.90
1137;DHT22;557;48.466;7.950;2024-02-15T14:15:54;17.70;99.90
1137;DHT22;557;48.466;7.950;2024-02-15T14:18:24;17.90;99.90
1137;DHT22;557;48.466;7.950;2024-02-15T14:20:54;18.00;99.90
1137;DHT22;557;48.466;7.950;2024-02-15T14:23:25;18.10;99.90
1137;DHT22;557;48.466;7.950;2024-02-15T14:25:55;18.10;99.90
1137;DHT22;557;48.466;7.950;2024-02-15T14:28:25;18.30;99.90
1137;DHT22;557;48.466;7.950;2024-02-15T14:30:53;18.40;99.90
1137;DHT22;557;48.466;7.950;2024-02-15T14:33:37;18.50;99.90
1137;DHT22;557;48.466;7.950;2024-02-15T14:36:04;18.40;99.90
1137;DHT22;557;48.466;7.950;2024-02-15T14:38:33;18.30;99.90
1137;DHT22;557;48.466;7.950;2024-02-15T14:41:00;18.10;99.90
1137;DHT22;557;48.466;7.950;2024-02-15T14:43:29;18.00;99.90
1137;DHT22;557;48.466;7.950;2024-02-15T14:45:56;17.80;99.90
1137;DHT22;557;48.466;7.950;2024-02-15T14:48:24;17.50;99.90
1137;DHT22;557;48.466;7.950;2024-02-15T14:50:52;17.30;99.90
1137;DHT22;557;48.466;7.950;2024-02-15T14:53:19;17.10;99.90
1137;DHT22;557;48.466;7.950;2024-02-15T14:55:47;16.90;99.90
1137;DHT22;557;48.466;7.950;2024-02-15T14:58:15;16.80;99.90
1137;DHT22;557;48.466;7.950;2024-02-15T15:00:42;16.80;99.90
1137;DHT22;557;48.466;7.950;2024-02-15T15:03:10;16.60;99.90
1137;DHT22;557;48.466;7.950;2024-02-15T15:05:38;16.40;99.90
1137;DHT22;557;48.466;7.950;2024-02-15T15:08:23;16.40;99.90
1137;DHT22;557;48.466;7.950;2024-02-15T15:11:08;16.20;99.90
1137;DHT22;557;48.466;7.950;2024-02-15T15:13:59;16.10;99.90
1137;DHT22;557;48.466;7.950;2024-02-15T15:16:28;15.90;99.90
1137;DHT22;557;48.466;7.950;2024-02-15T15:18:56;15.90;99.90
1137;DHT22;557;48.466;7.950;2024-02-15T15:21:23;15.80;99.90
1137;DHT22;557;48.466;7.950;2024-02-15T15:23:53;15.70;99.90
1137;DHT22;557;48.466;7.950;2024-02-15T15:26:22;15.60;99.90
1137;DHT22;557;48.466;7.950;2024-02-15T15:28:49;15.60;99.90
1137;DHT22;557;48.466;7.950;2024-02-15T15:31:16;15.50;99.90
1137;DHT22;557;48.466;7.950;2024-02-15T15:33:45;15.50;99.90
1137;DHT22;557;48.466;7.950;2024-02-15T15:36:13;15.40;99.90
1137;DHT22;557;48.466;7.950;2024-02-15T15:38:42;15.40;99.90
1137;DHT22;557;48.466;7.950;2024-02-15T15:41:09;15.30;99.90
1137;DHT22;557;48.466;7.950;2024-02-15T15:43:39;15.30;99.90
1137;DHT22;557;48.466;7.950;2024-02-15T15:46:05;15.20;99.90
1137;DHT22;557;48.466;7.950;2024-02-15T15:48:33;15.10;99.90
1137;DHT22;557;48.466;7.950;2024-02-15T15:51:02;15.10;99.90
1137;DHT22;557;48.466;7.950;2024-02-15T15:53:31;14.90;99.90
1137;DHT22;557;48.466;7.950;2024-02-15T15:55:59;14.90;99.90
1137;DHT22;557;48.466;7.950;2024-02-15T15:58:26;14.80;99.90
1137;DHT22;557;48.466;7.950;2024-02-15T16:00:54;14.80;99.90
1137;DHT22;557;48.466;7.950;2024-02-15T16:03:22;14.70;99.90
1137;DHT22;557;48.466;7.950;2024-02-15T16:05:49;14.70;99.90
1137;DHT22;557;48.466;7.950;2024-02-15T16:08:15;14.60;99.90
1137;DHT22;557;48.466;7.950;2024-02-15T16:10:42;14.50;99.90
1137;DHT22;557;48.466;7.950;2024-02-15T16:13:09;14.50;99.90
1137;DHT22;557;48.466;7.950;2024-02-15T16:15:36;14.50;99.90
1137;DHT22;557;48.466;7.950;2024-02-15T16:18:05;14.40;99.90
1137;DHT22;557;48.466;7.950;2024-02-15T16:20:32;14.40;99.90
1137;DHT22;557;48.466;7.950;2024-02-15T16:22:59;14.30;99.90
1137;DHT22;557;48.466;7.950;2024-02-15T16:25:26;14.30;99.90
1137;DHT22;557;48.466;7.950;2024-02-15T16:27:53;14.20;99.90
1137;DHT22;557;48.466;7.950;2024-02-15T16:30:21;14.20;99.90
1137;DHT22;557;48.466;7.950;2024-02-15T16:32:48;14.10;99.90
1137;DHT22;557;48.466;7.950;2024-02-15T16:35:16;14.00;99.90
1137;DHT22;557;48.466;7.950;2024-02-15T16:37:45;13.90;99.90
1137;DHT22;557;48.466;7.950;2024-02-15T16:40:13;13.80;99.90
1137;DHT22;557;48.466;7.950;2024-02-15T16:42:43;13.80;99.90